sensor_id;sensor_type;location;lat;lon;timestamp;temperature;humidity
37426;DHT22;23285;50.180;7.036;2023-02-24T00:10:39;8.50;99.90
37426;DHT22;23285;50.180;7.036;2023-02-24T00:16:15;8.50;99.90
37426;DHT22;23285;50.180;7.036;2023-02-24T00:19:02;8.30;99.90
37426;DHT22;23285;50.180;7.036;2023-02-24T00:21:51;8.30;99.90
37426;DHT22;23285;50.180;7.036;2023-02-24T00:24:39;8.40;99.90
37426;DHT22;23285;50.180;7.036;2023-02-24T00:27:26;8.30;99.90
37426;DHT22;23285;50.180;7.036;2023-02-24T00:30:15;8.20;99.90
37426;DHT22;23285;50.180;7.036;2023-02-24T00:33:03;8.20;99.90
37426;DHT22;23285;50.180;7.036;2023-02-24T00:38:38;7.90;99.90
37426;DHT22;23285;50.180;7.036;2023-02-24T00:41:26;8.00;99.90
37426;DHT22;23285;50.180;7.036;2023-02-24T00:44:13;8.20;99.90
37426;DHT22;23285;50.180;7.036;2023-02-24T00:52:37;8.10;99.90
37426;DHT22;23285;50.180;7.036;2023-02-24T00:55:24;8.10;99.90
37426;DHT22;23285;50.180;7.036;2023-02-24T00:58:11;8.10;99.90
37426;DHT22;23285;50.180;7.036;2023-02-24T01:00:58;8.10;99.90
37426;DHT22;23285;50.180;7.036;2023-02-24T01:03:45;8.30;99.90
37426;DHT22;23285;50.180;7.036;2023-02-24T01:12:08;8.30;99.90
37426;DHT22;23285;50.180;7.036;2023-02-24T01:20:51;8.30;99.90
37426;DHT22;23285;50.180;7.036;2023-02-24T01:23:39;8.00;99.90
37426;DHT22;23285;50.180;7.036;2023-02-24T01:26:26;8.10;99.90
37426;DHT22;23285;50.180;7.036;2023-02-24T01:29:14;8.20;99.90
37426;DHT22;23285;50.180;7.036;2023-02-24T01:32:00;8.50;99.90
37426;DHT22;23285;50.180;7.036;2023-02-24T01:37:33;8.60;99.90
37426;DHT22;23285;50.180;7.036;2023-02-24T01:40:21;8.30;99.90
37426;DHT22;23285;50.180;7.036;2023-02-24T01:43:11;8.40;99.90
37426;DHT22;23285;50.180;7.036;2023-02-24T01:45:59;8.40;99.90
37426;DHT22;23285;50.180;7.036;2023-02-24T01:48:45;8.30;99.90
37426;DHT22;23285;50.180;7.036;2023-02-24T02:00:02;8.20;99.90
37426;DHT22;23285;50.180;7.036;2023-02-24T02:03:15;8.90;99.90
37426;DHT22;23285;50.180;7.036;2023-02-24T02:11:39;9.00;99.90
37426;DHT22;23285;50.180;7.036;2023-02-24T02:26:39;9.00;99.90
37426;DHT22;23285;50.180;7.036;2023-02-24T02:33:17;9.70;99.90
37426;DHT22;23285;50.180;7.036;2023-02-24T02:36:19;9.40;99.90
37426;DHT22;23285;50.180;7.036;2023-02-24T02:39:13;9.00;99.90
37426;DHT22;23285;50.180;7.036;2023-02-24T02:44:55;8.70;99.90
37426;DHT22;23285;50.180;7.036;2023-02-24T02:47:47;8.60;99.90
37426;DHT22;23285;50.180;7.036;2023-02-24T02:50:40;8.40;99.90
37426;DHT22;23285;50.180;7.036;2023-02-24T02:53:34;8.50;99.90
37426;DHT22;23285;50.180;7.036;2023-02-24T02:56:25;8.70;99.90
37426;DHT22;23285;50.180;7.036;2023-02-24T02:59:16;8.40;99.90
37426;DHT22;23285;50.180;7.036;2023-02-24T03:02:08;8.50;99.90
37426;DHT22;23285;50.180;7.036;2023-02-24T03:05:01;8.10;99.90
37426;DHT22;23285;50.180;7.036;2023-02-24T03:07:54;8.50;99.90
37426;DHT22;23285;50.180;7.036;2023-02-24T03:13:40;8.00;99.90
37426;DHT22;23285;50.180;7.036;2023-02-24T03:24:55;7.80;99.90
37426;DHT22;23285;50.180;7.036;2023-02-24T03:33:34;7.90;99.90
37426;DHT22;23285;50.180;7.036;2023-02-24T03:39:09;8.00;99.90
37426;DHT22;23285;50.180;7.036;2023-02-24T03:42:04;8.20;99.90
37426;DHT22;23285;50.180;7.036;2023-02-24T03:47:43;8.10;99.90
37426;DHT22;23285;50.180;7.036;2023-02-24T03:50:32;8.00;99.90
37426;DHT22;23285;50.180;7.036;2023-02-24T03:53:31;7.80;99.90
37426;DHT22;23285;50.180;7.036;2023-02-24T03:56:26;8.30;99.90
37426;DHT22;23285;50.180;7.036;2023-02-24T03:59:22;8.50;99.90
37426;DHT22;23285;50.180;7.036;2023-02-24T04:02:19;8.40;99.90
37426;DHT22;23285;50.180;7.036;2023-02-24T04:05:11;8.80;99.90
37426;DHT22;23285;50.180;7.036;2023-02-24T04:08:09;8.70;99.90
37426;DHT22;23285;50.180;7.036;2023-02-24T04:19:36;8.80;99.90
37426;DHT22;23285;50.180;7.036;2023-02-24T04:25:14;8.80;99.90
37426;DHT22;23285;50.180;7.036;2023-02-24T04:28:03;8.60;99.90
37426;DHT22;23285;50.180;7.036;2023-02-24T04:30:54;8.70;99.90
37426;DHT22;23285;50.180;7.036;2023-02-24T04:36:36;8.40;99.90
37426;DHT22;23285;50.180;7.036;2023-02-24T04:42:14;8.50;99.90
37426;DHT22;23285;50.180;7.036;2023-02-24T04:45:00;8.20;99.90
37426;DHT22;23285;50.180;7.036;2023-02-24T04:47:55;8.20;99.90
37426;DHT22;23285;50.180;7.036;2023-02-24T04:50:44;8.50;99.90
37426;DHT22;23285;50.180;7.036;2023-02-24T04:53:34;9.00;99.90
37426;DHT22;23285;50.180;7.036;2023-02-24T04:56:22;9.00;99.90
37426;DHT22;23285;50.180;7.036;2023-02-24T05:01:55;9.00;99.90
37426;DHT22;23285;50.180;7.036;2023-02-24T05:04:45;9.50;99.90
37426;DHT22;23285;50.180;7.036;2023-02-24T05:07:33;9.60;99.90
37426;DHT22;23285;50.180;7.036;2023-02-24T05:13:14;8.50;99.90
37426;DHT22;23285;50.180;7.036;2023-02-24T05:16:04;8.00;99.90
37426;DHT22;23285;50.180;7.036;2023-02-24T05:18:51;8.40;99.90
37426;DHT22;23285;50.180;7.036;2023-02-24T05:21:58;8.00;99.90
37426;DHT22;23285;50.180;7.036;2023-02-24T05:30:22;8.40;99.90
37426;DHT22;23285;50.180;7.036;2023-02-24T05:33:09;8.20;99.90
37426;DHT22;23285;50.180;7.036;2023-02-24T05:36:01;8.30;99.90
37426;DHT22;23285;50.180;7.036;2023-02-24T05:38:50;8.10;99.90
37426;DHT22;23285;50.180;7.036;2023-02-24T05:41:40;7.80;99.90
37426;DHT22;23285;50.180;7.036;2023-02-24T05:44:28;7.90;99.90
37426;DHT22;23285;50.180;7.036;2023-02-24T05:47:15;7.80;99.90
37426;DHT22;23285;50.180;7.036;2023-02-24T05:50:04;7.80;99.90
37426;DHT22;23285;50.180;7.036;2023-02-24T05:55:39;8.10;99.90
37426;DHT22;23285;50.180;7.036;2023-02-24T05:58:27;7.80;99.90
37426;DHT22;23285;50.180;7.036;2023-02-24T06:01:16;7.70;99.90
37426;DHT22;23285;50.180;7.036;2023-02-24T06:09:37;7.70;99.90
37426;DHT22;23285;50.180;7.036;2023-02-24T06:12:26;7.70;99.90
37426;DHT22;23285;50.180;7.036;2023-02-24T06:15:13;7.70;99.90
37426;DHT22;23285;50.180;7.036;2023-02-24T06:18:02;7.50;99.90
37426;DHT22;23285;50.180;7.036;2023-02-24T06:20:48;7.80;99.90
37426;DHT22;23285;50.180;7.036;2023-02-24T06:23:35;8.20;99.90
37426;DHT22;23285;50.180;7.036;2023-02-24T06:26:21;8.10;99.90
37426;DHT22;23285;50.180;7.036;2023-02-24T06:29:11;8.00;99.90
37426;DHT22;23285;50.180;7.036;2023-02-24T06:34:54;7.80;99.90
37426;DHT22;23285;50.180;7.036;2023-02-24T06:40:27;7.80;99.90
37426;DHT22;23285;50.180;7.036;2023-02-24T06:43:15;7.70;99.90
37426;DHT22;23285;50.180;7.036;2023-02-24T06:46:01;7.90;99.90
37426;DHT22;23285;50.180;7.036;2023-02-24T06:48:50;7.90;99.90
37426;DHT22;23285;50.180;7.036;2023-02-24T06:51:38;7.70;99.90
37426;DHT22;23285;50.180;7.036;2023-02-24T06:54:26;7.80;99.90
37426;DHT22;23285;50.180;7.036;2023-02-24T06:57:14;7.80;99.90
37426;DHT22;23285;50.180;7.036;2023-02-24T07:05:58;8.00;99.90
37426;DHT22;23285;50.180;7.036;2023-02-24T07:09:02;7.90;99.90
37426;DHT22;23285;50.180;7.036;2023-02-24T07:14:39;7.70;99.90
37426;DHT22;23285;50.180;7.036;2023-02-24T07:17:26;7.60;99.90
37426;DHT22;23285;50.180;7.036;2023-02-24T07:20:12;7.60;99.90
37426;DHT22;23285;50.180;7.036;2023-02-24T07:23:09;7.80;99.90
37426;DHT22;23285;50.180;7.036;2023-02-24T07:25:56;7.90;99.90
37426;DHT22;23285;50.180;7.036;2023-02-24T07:28:45;7.60;99.90
37426;DHT22;23285;50.180;7.036;2023-02-24T07:31:32;7.40;99.90
37426;DHT22;23285;50.180;7.036;2023-02-24T07:37:09;7.50;99.90
37426;DHT22;23285;50.180;7.036;2023-02-24T07:39:56;7.60;99.90
37426;DHT22;23285;50.180;7.036;2023-02-24T07:42:43;8.00;99.90
37426;DHT22;23285;50.180;7.036;2023-02-24T07:45:31;7.90;99.90
37426;DHT22;23285;50.180;7.036;2023-02-24T07:48:18;7.90;99.90
37426;DHT22;23285;50.180;7.036;2023-02-24T07:53:54;7.90;99.90
37426;DHT22;23285;50.180;7.036;2023-02-24T07:59:41;8.00;99.90
37426;DHT22;23285;50.180;7.036;2023-02-24T08:08:05;7.60;99.90
37426;DHT22;23285;50.180;7.036;2023-02-24T08:10:51;7.50;99.90
37426;DHT22;23285;50.180;7.036;2023-02-24T08:13:48;7.70;99.90
37426;DHT22;23285;50.180;7.036;2023-02-24T08:16:35;8.00;99.90
37426;DHT22;23285;50.180;7.036;2023-02-24T08:19:26;8.00;99.90
37426;DHT22;23285;50.180;7.036;2023-02-24T08:22:17;8.10;99.90
37426;DHT22;23285;50.180;7.036;2023-02-24T08:25:08;8.40;99.90
37426;DHT22;23285;50.180;7.036;2023-02-24T08:28:03;8.30;99.90
37426;DHT22;23285;50.180;7.036;2023-02-24T08:30:50;8.10;99.90
37426;DHT22;23285;50.180;7.036;2023-02-24T08:36:25;7.80;99.90
37426;DHT22;23285;50.180;7.036;2023-02-24T08:39:11;8.00;99.90
37426;DHT22;23285;50.180;7.036;2023-02-24T08:41:58;7.90;99.90
37426;DHT22;23285;50.180;7.036;2023-02-24T08:47:34;7.90;99.90
37426;DHT22;23285;50.180;7.036;2023-02-24T08:50:22;8.10;99.90
37426;DHT22;23285;50.180;7.036;2023-02-24T09:04:59;8.50;99.90
37426;DHT22;23285;50.180;7.036;2023-02-24T09:10:38;8.40;99.90
37426;DHT22;23285;50.180;7.036;2023-02-24T09:13:25;8.60;99.90
37426;DHT22;23285;50.180;7.036;2023-02-24T09:16:17;8.20;99.90
37426;DHT22;23285;50.180;7.036;2023-02-24T09:19:03;8.30;99.90
37426;DHT22;23285;50.180;7.036;2023-02-24T09:22:09;8.40;99.90
37426;DHT22;23285;50.180;7.036;2023-02-24T09:25:14;8.40;99.90
37426;DHT22;23285;50.180;7.036;2023-02-24T09:33:40;8.70;99.90
37426;DHT22;23285;50.180;7.036;2023-02-24T09:36:26;9.20;99.90
37426;DHT22;23285;50.180;7.036;2023-02-24T09:47:55;9.30;99.90
37426;DHT22;23285;50.180;7.036;2023-02-24T09:50:41;9.20;99.90
37426;DHT22;23285;50.180;7.036;2023-02-24T09:56:40;8.20;99.90
37426;DHT22;23285;50.180;7.036;2023-02-24T10:02:29;8.40;99.90
37426;DHT22;23285;50.180;7.036;2023-02-24T10:05:23;8.40;99.90
37426;DHT22;23285;50.180;7.036;2023-02-24T10:11:02;8.20;99.90
37426;DHT22;23285;50.180;7.036;2023-02-24T10:13:54;8.40;99.90
37426;DHT22;23285;50.180;7.036;2023-02-24T10:16:44;8.40;99.90
37426;DHT22;23285;50.180;7.036;2023-02-24T10:19:42;8.10;99.90
37426;DHT22;23285;50.180;7.036;2023-02-24T10:22:41;8.30;99.90
37426;DHT22;23285;50.180;7.036;2023-02-24T10:25:41;8.40;99.90
37426;DHT22;23285;50.180;7.036;2023-02-24T10:34:20;8.70;99.90
37426;DHT22;23285;50.180;7.036;2023-02-24T10:39:59;8.40;99.90
37426;DHT22;23285;50.180;7.036;2023-02-24T10:43:03;8.30;99.90
37426;DHT22;23285;50.180;7.036;2023-02-24T10:45:55;8.50;99.90
37426;DHT22;23285;50.180;7.036;2023-02-24T10:48:51;8.70;99.90
37426;DHT22;23285;50.180;7.036;2023-02-24T10:51:51;8.90;99.90
37426;DHT22;23285;50.180;7.036;2023-02-24T10:54:38;8.90;99.90
37426;DHT22;23285;50.180;7.036;2023-02-24T11:00:42;9.00;99.90
37426;DHT22;23285;50.180;7.036;2023-02-24T11:07:03;9.00;99.90
37426;DHT22;23285;50.180;7.036;2023-02-24T11:12:55;8.90;99.90
37426;DHT22;23285;50.180;7.036;2023-02-24T11:19:15;8.90;99.90
37426;DHT22;23285;50.180;7.036;2023-02-24T11:24:52;8.70;99.90
37426;DHT22;23285;50.180;7.036;2023-02-24T11:27:40;8.70;99.90
37426;DHT22;23285;50.180;7.036;2023-02-24T11:33:30;8.40;99.90
37426;DHT22;23285;50.180;7.036;2023-02-24T11:36:24;8.70;99.90
37426;DHT22;23285;50.180;7.036;2023-02-24T11:39:30;8.70;99.90
37426;DHT22;23285;50.180;7.036;2023-02-24T11:42:23;8.90;99.90
37426;DHT22;23285;50.180;7.036;2023-02-24T11:45:18;8.90;99.90
37426;DHT22;23285;50.180;7.036;2023-02-24T11:51:01;8.50;99.90
37426;DHT22;23285;50.180;7.036;2023-02-24T11:53:50;8.20;99.90
37426;DHT22;23285;50.180;7.036;2023-02-24T11:59:32;8.50;99.90
37426;DHT22;23285;50.180;7.036;2023-02-24T12:02:29;8.60;99.90
37426;DHT22;23285;50.180;7.036;2023-02-24T12:05:23;8.80;99.90
37426;DHT22;23285;50.180;7.036;2023-02-24T12:11:14;8.60;99.90
37426;DHT22;23285;50.180;7.036;2023-02-24T12:14:14;8.40;99.90
37426;DHT22;23285;50.180;7.036;2023-02-24T12:17:13;8.70;99.90
37426;DHT22;23285;50.180;7.036;2023-02-24T12:20:04;8.50;99.90
37426;DHT22;23285;50.180;7.036;2023-02-24T12:22:56;8.40;99.90
37426;DHT22;23285;50.180;7.036;2023-02-24T12:29:05;9.10;99.90
37426;DHT22;23285;50.180;7.036;2023-02-24T12:32:03;9.00;99.90
37426;DHT22;23285;50.180;7.036;2023-02-24T12:43:39;9.00;99.90
37426;DHT22;23285;50.180;7.036;2023-02-24T12:46:30;8.90;99.90
37426;DHT22;23285;50.180;7.036;2023-02-24T12:49:44;8.90;99.90
37426;DHT22;23285;50.180;7.036;2023-02-24T12:55:29;8.70;99.90
37426;DHT22;23285;50.180;7.036;2023-02-24T12:58:20;8.80;99.90
37426;DHT22;23285;50.180;7.036;2023-02-24T13:01:15;8.80;99.90
37426;DHT22;23285;50.180;7.036;2023-02-24T13:04:12;8.50;99.90
37426;DHT22;23285;50.180;7.036;2023-02-24T13:07:08;8.40;99.90
37426;DHT22;23285;50.180;7.036;2023-02-24T13:10:08;8.10;99.90
37426;DHT22;23285;50.180;7.036;2023-02-24T13:15:50;8.30;99.90
37426;DHT22;23285;50.180;7.036;2023-02-24T13:18:37;8.30;99.90
37426;DHT22;23285;50.180;7.036;2023-02-24T13:24:20;7.90;99.90
37426;DHT22;23285;50.180;7.036;2023-02-24T13:27:22;8.00;99.90
37426;DHT22;23285;50.180;7.036;2023-02-24T13:30:25;8.00;99.90
37426;DHT22;23285;50.180;7.036;2023-02-24T13:33:26;7.80;99.90
37426;DHT22;23285;50.180;7.036;2023-02-24T13:39:06;7.50;99.90
37426;DHT22;23285;50.180;7.036;2023-02-24T13:42:04;7.60;99.90
37426;DHT22;23285;50.180;7.036;2023-02-24T13:44:53;7.50;99.90
37426;DHT22;23285;50.180;7.036;2023-02-24T13:47:57;7.60;99.90
37426;DHT22;23285;50.180;7.036;2023-02-24T13:51:01;7.40;99.90
37426;DHT22;23285;50.180;7.036;2023-02-24T13:54:03;7.20;99.90
37426;DHT22;23285;50.180;7.036;2023-02-24T13:56:56;7.30;99.90
37426;DHT22;23285;50.180;7.036;2023-02-24T14:00:02;7.10;99.90
37426;DHT22;23285;50.180;7.036;2023-02-24T14:02:57;7.30;99.90
37426;DHT22;23285;50.180;7.036;2023-02-24T14:08:39;7.00;99.90
37426;DHT22;23285;50.180;7.036;2023-02-24T14:17:05;7.00;99.90
37426;DHT22;23285;50.180;7.036;2023-02-24T14:19:54;7.00;99.90
37426;DHT22;23285;50.180;7.036;2023-02-24T14:22:45;7.10;99.90
37426;DHT22;23285;50.180;7.036;2023-02-24T14:25:35;7.30;99.90
37426;DHT22;23285;50.180;7.036;2023-02-24T14:31:13;7.00;99.90
37426;DHT22;23285;50.180;7.036;2023-02-24T14:34:03;7.20;99.90
37426;DHT22;23285;50.180;7.036;2023-02-24T14:36:55;7.10;99.90
37426;DHT22;23285;50.180;7.036;2023-02-24T14:39:49;7.40;99.90
37426;DHT22;23285;50.180;7.036;2023-02-24T14:42:46;7.50;99.90
37426;DHT22;23285;50.180;7.036;2023-02-24T14:45:32;7.30;99.90
37426;DHT22;23285;50.180;7.036;2023-02-24T14:48:22;7.20;99.90
37426;DHT22;23285;50.180;7.036;2023-02-24T14:51:14;7.00;99.90
37426;DHT22;23285;50.180;7.036;2023-02-24T14:54:07;7.10;99.90
37426;DHT22;23285;50.180;7.036;2023-02-24T14:56:58;7.10;99.90
37426;DHT22;23285;50.180;7.036;2023-02-24T14:59:47;7.00;99.90
37426;DHT22;23285;50.180;7.036;2023-02-24T15:02:40;7.00;99.90
37426;DHT22;23285;50.180;7.036;2023-02-24T15:05:28;6.80;99.90
37426;DHT22;23285;50.180;7.036;2023-02-24T15:08:29;6.80;99.90
37426;DHT22;23285;50.180;7.036;2023-02-24T15:11:21;6.90;99.90
37426;DHT22;23285;50.180;7.036;2023-02-24T15:14:18;6.90;99.90
37426;DHT22;23285;50.180;7.036;2023-02-24T15:17:10;6.80;99.90
37426;DHT22;23285;50.180;7.036;2023-02-24T15:25:44;6.50;99.90
37426;DHT22;23285;50.180;7.036;2023-02-24T15:28:32;6.60;99.90
37426;DHT22;23285;50.180;7.036;2023-02-24T15:31:19;6.30;99.90
37426;DHT22;23285;50.180;7.036;2023-02-24T15:34:16;6.40;99.90
37426;DHT22;23285;50.180;7.036;2023-02-24T15:37:14;6.50;99.90
37426;DHT22;23285;50.180;7.036;2023-02-24T15:40:04;6.90;99.90
37426;DHT22;23285;50.180;7.036;2023-02-24T15:42:54;7.00;99.90
37426;DHT22;23285;50.180;7.036;2023-02-24T15:45:41;6.60;99.90
37426;DHT22;23285;50.180;7.036;2023-02-24T15:51:20;6.20;99.90
37426;DHT22;23285;50.180;7.036;2023-02-24T15:54:11;6.20;99.90
37426;DHT22;23285;50.180;7.036;2023-02-24T15:56:58;6.20;99.90
37426;DHT22;23285;50.180;7.036;2023-02-24T15:59:47;6.00;99.90
37426;DHT22;23285;50.180;7.036;2023-02-24T16:02:33;6.30;99.90
37426;DHT22;23285;50.180;7.036;2023-02-24T16:05:19;6.30;99.90
37426;DHT22;23285;50.180;7.036;2023-02-24T16:08:09;6.30;99.90
37426;DHT22;23285;50.180;7.036;2023-02-24T16:10:56;6.10;99.90
37426;DHT22;23285;50.180;7.036;2023-02-24T16:13:48;6.20;99.90
37426;DHT22;23285;50.180;7.036;2023-02-24T16:16:37;6.40;99.90
37426;DHT22;23285;50.180;7.036;2023-02-24T16:19:23;6.50;99.90
37426;DHT22;23285;50.180;7.036;2023-02-24T16:22:09;6.40;99.90
37426;DHT22;23285;50.180;7.036;2023-02-24T16:24:56;6.50;99.90
37426;DHT22;23285;50.180;7.036;2023-02-24T16:30:29;6.40;99.90
37426;DHT22;23285;50.180;7.036;2023-02-24T16:33:18;6.50;99.90
37426;DHT22;23285;50.180;7.036;2023-02-24T16:36:09;6.50;99.90
37426;DHT22;23285;50.180;7.036;2023-02-24T16:38:57;6.50;99.90
37426;DHT22;23285;50.180;7.036;2023-02-24T16:41:45;6.60;99.90
37426;DHT22;23285;50.180;7.036;2023-02-24T16:44:31;6.60;99.90
37426;DHT22;23285;50.180;7.036;2023-02-24T16:47:20;6.70;99.90
37426;DHT22;23285;50.180;7.036;2023-02-24T16:50:18;6.50;99.90
37426;DHT22;23285;50.180;7.036;2023-02-24T16:55:52;6.10;99.90
37426;DHT22;23285;50.180;7.036;2023-02-24T17:04:11;6.50;99.90
37426;DHT22;23285;50.180;7.036;2023-02-24T17:09:46;6.20;99.90
37426;DHT22;23285;50.180;7.036;2023-02-24T17:12:32;6.10;99.90
37426;DHT22;23285;50.180;7.036;2023-02-24T17:15:21;6.00;99.90
37426;DHT22;23285;50.180;7.036;2023-02-24T17:18:08;5.80;99.90
37426;DHT22;23285;50.180;7.036;2023-02-24T17:20:54;5.50;99.90
37426;DHT22;23285;50.180;7.036;2023-02-24T17:23:42;5.50;99.90
37426;DHT22;23285;50.180;7.036;2023-02-24T17:26:28;5.50;99.90
37426;DHT22;23285;50.180;7.036;2023-02-24T17:32:02;5.80;99.90
37426;DHT22;23285;50.180;7.036;2023-02-24T17:34:49;5.50;99.90
37426;DHT22;23285;50.180;7.036;2023-02-24T17:46:00;5.60;99.90
37426;DHT22;23285;50.180;7.036;2023-02-24T17:51:33;5.30;99.90
37426;DHT22;23285;50.180;7.036;2023-02-24T17:54:19;5.30;99.90
37426;DHT22;23285;50.180;7.036;2023-02-24T17:57:07;5.40;99.90
37426;DHT22;23285;50.180;7.036;2023-02-24T17:59:54;5.50;99.90
37426;DHT22;23285;50.180;7.036;2023-02-24T18:02:40;5.70;99.90
37426;DHT22;23285;50.180;7.036;2023-02-24T18:05:27;5.50;99.90
37426;DHT22;23285;50.180;7.036;2023-02-24T18:08:13;5.40;99.90
37426;DHT22;23285;50.180;7.036;2023-02-24T18:24:56;5.50;99.90
37426;DHT22;23285;50.180;7.036;2023-02-24T18:27:43;5.70;99.90
37426;DHT22;23285;50.180;7.036;2023-02-24T18:36:05;5.40;99.90
37426;DHT22;23285;50.180;7.036;2023-02-24T18:38:51;5.20;99.90
37426;DHT22;23285;50.180;7.036;2023-02-24T18:44:24;5.20;99.90
37426;DHT22;23285;50.180;7.036;2023-02-24T18:49:59;5.30;99.90
37426;DHT22;23285;50.180;7.036;2023-02-24T18:58:20;5.30;99.90
37426;DHT22;23285;50.180;7.036;2023-02-24T19:01:10;5.30;99.90
37426;DHT22;23285;50.180;7.036;2023-02-24T19:03:59;5.20;99.90
37426;DHT22;23285;50.180;7.036;2023-02-24T19:06:45;5.30;99.90
37426;DHT22;23285;50.180;7.036;2023-02-24T19:12:20;5.50;99.90
37426;DHT22;23285;50.180;7.036;2023-02-24T19:15:07;5.60;99.90
37426;DHT22;23285;50.180;7.036;2023-02-24T19:17:53;5.40;99.90
37426;DHT22;23285;50.180;7.036;2023-02-24T19:20:42;5.50;99.90
37426;DHT22;23285;50.180;7.036;2023-02-24T19:23:28;5.40;99.90
37426;DHT22;23285;50.180;7.036;2023-02-24T19:26:16;5.50;99.90
37426;DHT22;23285;50.180;7.036;2023-02-24T19:37:26;5.10;99.90
37426;DHT22;23285;50.180;7.036;2023-02-24T19:40:13;4.80;99.90
37426;DHT22;23285;50.180;7.036;2023-02-24T19:42:59;4.70;99.90
37426;DHT22;23285;50.180;7.036;2023-02-24T19:45:45;4.60;99.90
37426;DHT22;23285;50.180;7.036;2023-02-24T19:48:32;4.80;99.90
37426;DHT22;23285;50.180;7.036;2023-02-24T19:54:10;4.70;99.90
37426;DHT22;23285;50.180;7.036;2023-02-24T19:56:58;4.70;99.90
37426;DHT22;23285;50.180;7.036;2023-02-24T19:59:44;4.60;99.90
37426;DHT22;23285;50.180;7.036;2023-02-24T20:02:30;4.50;99.90
37426;DHT22;23285;50.180;7.036;2023-02-24T20:08:03;4.50;99.90
37426;DHT22;23285;50.180;7.036;2023-02-24T20:10:58;4.80;99.90
37426;DHT22;23285;50.180;7.036;2023-02-24T20:24:54;5.30;99.90
37426;DHT22;23285;50.180;7.036;2023-02-24T20:27:42;5.80;99.90
37426;DHT22;23285;50.180;7.036;2023-02-24T20:30:28;6.00;99.90
37426;DHT22;23285;50.180;7.036;2023-02-24T20:33:16;6.00;99.90
37426;DHT22;23285;50.180;7.036;2023-02-24T20:36:06;5.80;99.90
37426;DHT22;23285;50.180;7.036;2023-02-24T20:38:53;5.70;99.90
37426;DHT22;23285;50.180;7.036;2023-02-24T20:41:40;5.80;99.90
37426;DHT22;23285;50.180;7.036;2023-02-24T20:44:28;5.70;99.90
37426;DHT22;23285;50.180;7.036;2023-02-24T20:47:14;5.70;99.90
37426;DHT22;23285;50.180;7.036;2023-02-24T20:52:49;5.70;99.90
37426;DHT22;23285;50.180;7.036;2023-02-24T20:55:36;5.80;99.90
37426;DHT22;23285;50.180;7.036;2023-02-24T20:58:23;5.80;99.90
37426;DHT22;23285;50.180;7.036;2023-02-24T21:03:58;5.90;99.90
37426;DHT22;23285;50.180;7.036;2023-02-24T21:06:45;5.70;99.90
37426;DHT22;23285;50.180;7.036;2023-02-24T21:09:31;5.90;99.90
37426;DHT22;23285;50.180;7.036;2023-02-24T21:20:43;5.50;99.90
37426;DHT22;23285;50.180;7.036;2023-02-24T21:29:03;5.10;99.90
37426;DHT22;23285;50.180;7.036;2023-02-24T21:31:50;5.10;99.90
37426;DHT22;23285;50.180;7.036;2023-02-24T21:37:23;5.00;99.90
37426;DHT22;23285;50.180;7.036;2023-02-24T21:42:56;4.90;99.90
37426;DHT22;23285;50.180;7.036;2023-02-24T21:51:19;5.10;99.90
37426;DHT22;23285;50.180;7.036;2023-02-24T21:54:08;5.10;99.90
37426;DHT22;23285;50.180;7.036;2023-02-24T21:59:43;5.10;99.90
37426;DHT22;23285;50.180;7.036;2023-02-24T22:05:17;5.40;99.90
37426;DHT22;23285;50.180;7.036;2023-02-24T22:08:05;5.30;99.90
37426;DHT22;23285;50.180;7.036;2023-02-24T22:13:46;5.90;99.90
37426;DHT22;23285;50.180;7.036;2023-02-24T22:16:32;5.90;99.90
37426;DHT22;23285;50.180;7.036;2023-02-24T22:19:19;6.00;99.90
37426;DHT22;23285;50.180;7.036;2023-02-24T22:24:54;6.10;99.90
37426;DHT22;23285;50.180;7.036;2023-02-24T22:27:40;6.00;99.90
37426;DHT22;23285;50.180;7.036;2023-02-24T22:33:12;5.60;99.90
37426;DHT22;23285;50.180;7.036;2023-02-24T22:38:47;5.60;99.90
37426;DHT22;23285;50.180;7.036;2023-02-24T22:41:34;5.40;99.90
37426;DHT22;23285;50.180;7.036;2023-02-24T22:44:21;5.60;99.90
37426;DHT22;23285;50.180;7.036;2023-02-24T22:47:08;5.70;99.90
37426;DHT22;23285;50.180;7.036;2023-02-24T22:49:54;5.40;99.90
37426;DHT22;23285;50.180;7.036;2023-02-24T22:55:27;5.30;99.90
37426;DHT22;23285;50.180;7.036;2023-02-24T22:58:15;5.30;99.90
37426;DHT22;23285;50.180;7.036;2023-02-24T23:03:57;5.70;99.90
37426;DHT22;23285;50.180;7.036;2023-02-24T23:09:31;5.40;99.90
37426;DHT22;23285;50.180;7.036;2023-02-24T23:12:18;5.20;99.90
37426;DHT22;23285;50.180;7.036;2023-02-24T23:15:06;5.20;99.90
37426;DHT22;23285;50.180;7.036;2023-02-24T23:20:40;4.90;99.90
37426;DHT22;23285;50.180;7.036;2023-02-24T23:23:30;5.00;99.90
37426;DHT22;23285;50.180;7.036;2023-02-24T23:26:16;4.70;99.90
37426;DHT22;23285;50.180;7.036;2023-02-24T23:29:04;4.60;99.90
37426;DHT22;23285;50.180;7.036;2023-02-24T23:31:52;4.50;99.90
37426;DHT22;23285;50.180;7.036;2023-02-24T23:34:38;4.40;99.90
37426;DHT22;23285;50.180;7.036;2023-02-24T23:37:25;4.40;99.90
37426;DHT22;23285;50.180;7.036;2023-02-24T23:40:11;4.60;99.90
37426;DHT22;23285;50.180;7.036;2023-02-24T23:42:59;4.70;99.90
37426;DHT22;23285;50.180;7.036;2023-02-24T23:45:45;4.70;99.90
37426;DHT22;23285;50.180;7.036;2023-02-24T23:48:33;4.70;99.90
37426;DHT22;23285;50.180;7.036;2023-02-24T23:54:07;4.80;99.90
37426;DHT22;23285;50.180;7.036;2023-02-24T23:59:40;4.60;99.90
